createdAt,value
2019-02-19T00:00:21.118Z,8.04
2019-02-19T00:01:21.107Z,8.07
2019-02-19T00:02:21.095Z,8.12
2019-02-19T00:03:21.088Z,8.11
2019-02-19T00:04:21.077Z,8.10
2019-02-19T00:05:21.076Z,8.07
2019-02-19T00:06:21.053Z,8.00
2019-02-19T00:07:21.043Z,8.00
2019-02-19T00:08:21.035Z,7.93
2019-02-19T00:09:21.024Z,7.96
2019-02-19T00:10:21.009Z,7.96
2019-02-19T00:11:21.010Z,8.02
2019-02-19T00:12:20.988Z,8.02
2019-02-19T00:13:20.989Z,7.97
2019-02-19T00:14:20.966Z,7.90
2019-02-19T00:15:20.955Z,7.93
2019-02-19T00:16:20.944Z,7.96
2019-02-19T00:17:20.946Z,7.93
2019-02-19T00:18:20.925Z,7.97
2019-02-19T00:19:20.912Z,7.94
2019-02-19T00:20:20.904Z,7.92
2019-02-19T00:21:20.889Z,7.97
2019-02-19T00:22:20.881Z,7.94
2019-02-19T00:23:20.881Z,7.84
2019-02-19T00:24:20.857Z,7.89
2019-02-19T00:25:20.849Z,7.90
2019-02-19T00:26:20.835Z,7.87
2019-02-19T00:27:20.828Z,7.85
2019-02-19T00:28:20.822Z,7.85
2019-02-19T00:29:20.812Z,7.89
2019-02-19T00:30:20.792Z,7.84
2019-02-19T00:31:20.790Z,7.75
2019-02-19T00:32:20.770Z,7.78
2019-02-19T00:33:20.777Z,7.77
2019-02-19T00:34:20.751Z,7.74
2019-02-19T00:35:20.750Z,7.69
2019-02-19T00:36:20.724Z,7.71
2019-02-19T00:37:20.716Z,7.66
2019-02-19T00:38:20.703Z,7.66
2019-02-19T00:39:20.698Z,7.71
2019-02-19T00:40:20.684Z,7.63
2019-02-19T00:41:20.680Z,7.60
2019-02-19T00:42:20.659Z,7.59
2019-02-19T00:43:20.649Z,7.63
2019-02-19T00:44:20.640Z,7.55
2019-02-19T00:45:20.629Z,7.55
2019-02-19T00:46:20.616Z,7.69
2019-02-19T00:47:20.619Z,7.66
2019-02-19T00:48:20.595Z,7.66
2019-02-19T00:49:20.584Z,7.60
2019-02-19T00:50:20.572Z,7.63
2019-02-19T00:51:20.562Z,7.55
2019-02-19T00:52:20.552Z,7.60
2019-02-19T00:53:20.563Z,7.47
2019-02-19T00:54:20.530Z,7.69
2019-02-19T00:55:20.518Z,7.53
2019-02-19T00:56:20.514Z,7.49
2019-02-19T00:57:20.499Z,7.52
2019-02-19T00:58:20.493Z,7.56
2019-02-19T00:59:20.488Z,7.49
2019-02-19T01:00:20.465Z,7.55
2019-02-19T01:01:20.454Z,7.45
2019-02-19T01:02:20.445Z,7.53
2019-02-19T01:03:20.433Z,7.42
2019-02-19T01:04:20.424Z,7.42
2019-02-19T01:05:20.423Z,7.40
2019-02-19T01:06:20.402Z,7.40
2019-02-19T01:07:20.389Z,7.44
2019-02-19T01:08:20.379Z,7.44
2019-02-19T01:09:20.370Z,7.45
2019-02-19T01:10:20.359Z,7.41
2019-02-19T01:11:20.359Z,7.42
2019-02-19T01:12:20.337Z,7.42
2019-02-19T01:13:20.334Z,7.42
2019-02-19T01:14:20.316Z,7.40
2019-02-19T01:15:25.387Z,7.44
2019-02-19T01:16:21.307Z,7.40
2019-02-19T01:17:20.288Z,7.40
2019-02-19T01:18:20.274Z,7.41
2019-02-19T01:19:20.262Z,7.44
2019-02-19T01:20:20.253Z,7.41
2019-02-19T01:21:20.242Z,7.44
2019-02-19T01:22:20.242Z,7.40
2019-02-19T01:23:20.221Z,7.44
2019-02-19T01:24:20.213Z,7.44
2019-02-19T01:25:20.202Z,7.45
2019-02-19T01:26:20.189Z,7.45
2019-02-19T01:27:20.178Z,7.41
2019-02-19T01:28:20.182Z,7.38
2019-02-19T01:29:20.157Z,7.42
2019-02-19T01:30:20.147Z,7.37
2019-02-19T01:31:20.136Z,7.40
2019-02-19T01:32:20.127Z,7.44
2019-02-19T01:33:20.116Z,7.44
2019-02-19T01:34:20.119Z,7.41
2019-02-19T01:35:20.096Z,7.44
2019-02-19T01:36:20.083Z,7.40
2019-02-19T01:37:20.072Z,7.38
2019-02-19T01:38:20.064Z,7.37
2019-02-19T01:39:20.051Z,7.45
2019-02-19T01:40:20.053Z,7.41
2019-02-19T01:41:20.032Z,7.45
2019-02-19T01:42:20.020Z,7.38
2019-02-19T01:43:20.009Z,7.40
2019-02-19T01:44:19.998Z,7.41
2019-02-19T01:45:19.987Z,7.42
2019-02-19T01:46:19.992Z,7.50
2019-02-19T01:47:19.966Z,7.50
2019-02-19T01:48:19.956Z,7.56
2019-02-19T01:49:19.946Z,7.47
2019-02-19T01:50:19.935Z,7.52
2019-02-19T01:51:19.925Z,7.53
2019-02-19T01:52:19.923Z,7.62
2019-02-19T01:53:19.902Z,7.53
2019-02-19T01:54:19.891Z,7.52
2019-02-19T01:55:19.880Z,7.53
2019-02-19T01:56:19.869Z,7.62
2019-02-19T01:57:19.859Z,7.55
2019-02-19T01:58:19.860Z,7.67
2019-02-19T01:59:19.837Z,7.56
2019-02-19T02:00:19.827Z,7.60
2019-02-19T02:01:19.817Z,7.67
2019-02-19T02:02:19.805Z,7.72
2019-02-19T02:03:19.793Z,7.63
2019-02-19T02:04:19.794Z,7.63
2019-02-19T02:05:19.773Z,7.60
2019-02-19T02:06:19.762Z,7.72
2019-02-19T02:07:19.751Z,7.71
2019-02-19T02:08:19.739Z,7.69
2019-02-19T02:09:19.729Z,7.67
2019-02-19T02:10:19.731Z,7.69
2019-02-19T02:11:19.707Z,7.72
2019-02-19T02:12:19.696Z,7.79
2019-02-19T02:13:19.685Z,7.71
2019-02-19T02:14:19.677Z,7.77
2019-02-19T02:15:19.663Z,7.78
2019-02-19T02:16:19.663Z,7.77
2019-02-19T02:17:19.641Z,7.71
2019-02-19T02:18:19.631Z,7.72
2019-02-19T02:19:19.621Z,7.79
2019-02-19T02:20:19.609Z,7.78
2019-02-19T02:21:19.597Z,7.75
2019-02-19T02:22:19.603Z,7.75
2019-02-19T02:23:19.575Z,7.79
2019-02-19T02:24:19.565Z,7.78
2019-02-19T02:25:19.554Z,7.74
2019-02-19T02:26:19.545Z,7.78
2019-02-19T02:27:19.531Z,7.72
2019-02-19T02:28:19.532Z,7.79
2019-02-19T02:29:19.511Z,7.75
2019-02-19T02:30:19.507Z,7.79
2019-02-19T02:31:19.488Z,7.77
2019-02-19T02:32:19.477Z,7.78
2019-02-19T02:33:19.468Z,7.79
2019-02-19T02:34:19.464Z,7.78
2019-02-19T02:35:19.447Z,7.79
2019-02-19T02:36:19.440Z,7.75
2019-02-19T02:37:19.422Z,7.79
2019-02-19T02:38:19.411Z,7.82
2019-02-19T02:39:19.400Z,7.78
2019-02-19T02:40:19.403Z,7.74
2019-02-19T02:41:19.382Z,7.77
2019-02-19T02:42:19.368Z,7.74
2019-02-19T02:43:19.357Z,7.75
2019-02-19T02:44:19.346Z,7.75
2019-02-19T02:45:19.338Z,7.71
2019-02-19T02:46:19.338Z,7.75
2019-02-19T02:47:19.314Z,7.72
2019-02-19T02:48:19.303Z,7.66
2019-02-19T02:49:19.307Z,7.69
2019-02-19T02:50:19.286Z,7.66
2019-02-19T02:51:19.269Z,7.74
2019-02-19T02:52:19.273Z,7.63
2019-02-19T02:53:19.252Z,7.55
2019-02-19T02:54:19.241Z,7.60
2019-02-19T02:55:19.226Z,7.58
2019-02-19T02:56:19.216Z,7.63
2019-02-19T02:57:19.205Z,7.55
2019-02-19T02:58:19.210Z,7.58
2019-02-19T02:59:19.184Z,7.50
2019-02-19T03:00:19.173Z,7.52
2019-02-19T03:01:19.164Z,7.56
2019-02-19T03:02:19.157Z,7.55
2019-02-19T03:03:19.139Z,7.56
2019-02-19T03:04:19.148Z,7.55
2019-02-19T03:05:19.120Z,7.50
2019-02-19T03:06:19.107Z,7.41
2019-02-19T03:07:19.098Z,7.40
2019-02-19T03:08:19.085Z,7.45
2019-02-19T03:09:19.073Z,7.38
2019-02-19T03:10:19.074Z,7.41
2019-02-19T03:11:19.054Z,7.41
2019-02-19T03:12:19.040Z,7.41
2019-02-19T03:13:19.030Z,7.40
2019-02-19T03:14:19.020Z,7.45
2019-02-19T03:15:19.022Z,7.37
2019-02-19T03:16:19.007Z,7.37
2019-02-19T03:17:18.990Z,7.40
2019-02-19T03:18:18.975Z,7.37
2019-02-19T03:19:18.964Z,7.38
2019-02-19T03:20:18.955Z,7.32
2019-02-19T03:21:18.942Z,7.24
2019-02-19T03:22:18.941Z,7.35
2019-02-19T03:23:18.920Z,7.26
2019-02-19T03:24:18.910Z,7.31
2019-02-19T03:25:18.898Z,7.26
2019-02-19T03:26:18.887Z,7.26
2019-02-19T03:27:18.877Z,7.29
2019-02-19T03:28:18.876Z,7.31
2019-02-19T03:29:18.855Z,7.29
2019-02-19T03:30:18.843Z,7.31
2019-02-19T03:31:18.833Z,7.22
2019-02-19T03:32:18.844Z,7.24
2019-02-19T03:33:18.811Z,7.22
2019-02-19T03:34:18.822Z,7.27
2019-02-19T03:35:18.789Z,7.27
2019-02-19T03:36:18.776Z,7.31
2019-02-19T03:37:18.765Z,7.19
2019-02-19T03:38:18.755Z,7.27
2019-02-19T03:39:18.744Z,7.20
2019-02-19T03:40:18.747Z,7.26
2019-02-19T03:41:18.722Z,7.19
2019-02-19T03:42:18.710Z,7.22
2019-02-19T03:43:18.705Z,7.23
2019-02-19T03:44:18.691Z,7.23
2019-02-19T03:45:18.678Z,7.17
2019-02-19T03:46:18.677Z,7.17
2019-02-19T03:47:18.658Z,7.15
2019-02-19T03:48:18.644Z,7.16
2019-02-19T03:49:18.638Z,7.17
2019-02-19T03:50:18.623Z,7.15
2019-02-19T03:51:18.613Z,7.20
2019-02-19T03:52:18.614Z,7.13
2019-02-19T03:53:18.591Z,7.17
2019-02-19T03:54:18.584Z,7.16
2019-02-19T03:55:18.568Z,7.22
2019-02-19T03:56:18.557Z,7.23
2019-02-19T03:57:18.547Z,7.17
2019-02-19T03:58:18.552Z,7.19
2019-02-19T03:59:18.528Z,7.17
2019-02-19T04:00:18.520Z,7.07
2019-02-19T04:01:18.503Z,7.09
2019-02-19T04:02:18.528Z,7.12
2019-02-19T04:03:18.483Z,7.02
2019-02-19T04:04:18.493Z,7.02
2019-02-19T04:05:18.475Z,7.01
2019-02-19T04:06:18.451Z,7.09
2019-02-19T04:07:18.442Z,7.05
2019-02-19T04:08:18.428Z,7.05
2019-02-19T04:09:18.418Z,7.04
2019-02-19T04:10:18.420Z,7.05
2019-02-19T04:11:18.398Z,7.04
2019-02-19T04:12:18.387Z,7.04
2019-02-19T04:13:18.377Z,7.05
2019-02-19T04:14:18.365Z,7.09
2019-02-19T04:15:18.355Z,7.02
2019-02-19T04:16:21.235Z,7.07
2019-02-19T04:17:18.333Z,7.05
2019-02-19T04:18:18.323Z,7.02
2019-02-19T04:19:18.315Z,6.99
2019-02-19T04:20:18.301Z,7.05
2019-02-19T04:21:18.292Z,6.94
2019-02-19T04:22:18.297Z,6.94
2019-02-19T04:23:18.271Z,6.91
2019-02-19T04:24:18.260Z,6.97
2019-02-19T04:25:18.248Z,6.97
2019-02-19T04:26:18.238Z,7.01
2019-02-19T04:27:18.238Z,6.99
2019-02-19T04:28:18.235Z,6.98
2019-02-19T04:29:18.206Z,7.05
2019-02-19T04:30:18.197Z,6.94
2019-02-19T04:31:18.186Z,6.97
2019-02-19T04:32:18.179Z,6.90
2019-02-19T04:33:18.163Z,6.90
2019-02-19T04:34:18.165Z,6.94
2019-02-19T04:35:18.142Z,6.94
2019-02-19T04:36:18.132Z,6.98
2019-02-19T04:37:18.121Z,6.94
2019-02-19T04:38:18.110Z,6.90
2019-02-19T04:39:18.100Z,6.97
2019-02-19T04:40:18.104Z,6.86
2019-02-19T04:41:18.080Z,6.86
2019-02-19T04:42:18.071Z,6.98
2019-02-19T04:43:18.057Z,6.91
2019-02-19T04:44:18.048Z,6.94
2019-02-19T04:45:18.043Z,6.95
2019-02-19T04:46:18.037Z,6.86
2019-02-19T04:47:18.017Z,6.89
2019-02-19T04:48:18.013Z,6.95
2019-02-19T04:49:17.997Z,6.90
2019-02-19T04:50:19.735Z,6.95
2019-02-19T04:51:17.975Z,6.95
2019-02-19T04:52:17.983Z,6.94
2019-02-19T04:53:17.954Z,6.98
2019-02-19T04:54:17.942Z,6.99
2019-02-19T04:55:17.934Z,6.94
2019-02-19T04:56:17.920Z,6.94
2019-02-19T04:57:17.910Z,7.01
2019-02-19T04:58:17.910Z,6.97
2019-02-19T04:59:17.890Z,6.95
2019-02-19T05:00:17.878Z,6.94
2019-02-19T05:01:17.881Z,6.97
2019-02-19T05:02:17.856Z,7.04
2019-02-19T05:03:17.851Z,6.95
2019-02-19T05:04:17.856Z,6.95
2019-02-19T05:05:17.825Z,6.98
2019-02-19T05:06:17.813Z,6.99
2019-02-19T05:07:17.802Z,6.90
2019-02-19T05:08:17.793Z,6.99
2019-02-19T05:09:17.782Z,7.05
2019-02-19T05:10:17.783Z,7.01
2019-02-19T05:11:17.760Z,6.90
2019-02-19T05:12:17.750Z,6.97
2019-02-19T05:13:17.740Z,6.94
2019-02-19T05:14:17.769Z,6.90
2019-02-19T05:15:17.719Z,7.01
2019-02-19T05:16:17.717Z,6.97
2019-02-19T05:17:17.700Z,6.94
2019-02-19T05:18:17.686Z,6.94
2019-02-19T05:19:17.675Z,6.95
2019-02-19T05:20:17.665Z,6.99
2019-02-19T05:21:17.654Z,6.95
2019-02-19T05:22:17.658Z,6.99
2019-02-19T05:23:17.634Z,6.98
2019-02-19T05:24:17.622Z,6.94
2019-02-19T05:25:17.612Z,7.07
2019-02-19T05:26:17.612Z,7.01
2019-02-19T05:27:17.590Z,7.01
2019-02-19T05:28:17.588Z,6.97
2019-02-19T05:29:17.571Z,6.99
2019-02-19T05:30:17.557Z,6.91
2019-02-19T05:31:17.546Z,6.99
2019-02-19T05:32:17.535Z,6.94
2019-02-19T05:33:17.526Z,6.95
2019-02-19T05:34:17.526Z,6.98
2019-02-19T05:35:17.515Z,6.97
2019-02-19T05:36:17.492Z,7.04
2019-02-19T05:37:17.487Z,6.95
2019-02-19T05:38:17.470Z,7.01
2019-02-19T05:39:17.467Z,6.95
2019-02-19T05:40:17.480Z,6.91
2019-02-19T05:41:17.438Z,7.04
2019-02-19T05:42:17.430Z,7.08
2019-02-19T05:43:17.415Z,7.02
2019-02-19T05:44:17.406Z,6.99
2019-02-19T05:45:17.395Z,6.94
2019-02-19T05:46:17.412Z,7.05
2019-02-19T05:47:17.376Z,6.99
2019-02-19T05:48:17.363Z,7.05
2019-02-19T05:49:17.353Z,7.09
2019-02-19T05:50:17.344Z,7.07
2019-02-19T05:51:17.333Z,7.07
2019-02-19T05:52:17.333Z,7.13
2019-02-19T05:53:17.310Z,7.08
2019-02-19T05:54:17.299Z,7.04
2019-02-19T05:55:17.288Z,7.09
2019-02-19T05:56:17.278Z,6.99
2019-02-19T05:57:17.273Z,7.07
2019-02-19T05:58:17.270Z,7.07
2019-02-19T05:59:17.246Z,7.07
2019-02-19T06:00:17.234Z,7.07
2019-02-19T06:01:17.227Z,7.09
2019-02-19T06:02:17.213Z,7.12
2019-02-19T06:03:17.201Z,7.12
2019-02-19T06:04:17.208Z,7.09
2019-02-19T06:05:17.191Z,7.09
2019-02-19T06:06:17.169Z,6.98
2019-02-19T06:07:17.158Z,7.08
2019-02-19T06:08:17.147Z,6.98
2019-02-19T06:09:17.138Z,6.99
2019-02-19T06:10:17.143Z,7.09
2019-02-19T06:11:17.114Z,6.90
2019-02-19T06:12:17.103Z,6.91
2019-02-19T06:13:17.138Z,6.95
2019-02-19T06:14:17.084Z,7.05
2019-02-19T06:15:17.076Z,6.98
2019-02-19T06:16:17.082Z,6.98
2019-02-19T06:17:17.049Z,7.09
2019-02-19T06:18:17.038Z,7.02
2019-02-19T06:19:17.026Z,7.09
2019-02-19T06:20:17.016Z,7.05
2019-02-19T06:21:17.006Z,7.15
2019-02-19T06:22:17.005Z,7.07
2019-02-19T06:23:16.984Z,7.12
2019-02-19T06:24:16.973Z,7.05
2019-02-19T06:25:16.968Z,7.01
2019-02-19T06:26:16.950Z,6.97
2019-02-19T06:27:16.940Z,6.98
2019-02-19T06:28:16.941Z,6.99
2019-02-19T06:29:16.917Z,6.97
2019-02-19T06:30:16.907Z,6.90
2019-02-19T06:31:16.895Z,6.90
2019-02-19T06:32:16.890Z,6.90
2019-02-19T06:33:16.875Z,6.87
2019-02-19T06:34:16.874Z,6.83
2019-02-19T06:35:16.853Z,6.81
2019-02-19T06:36:16.844Z,6.84
2019-02-19T06:37:16.831Z,6.80
2019-02-19T06:38:16.821Z,6.80
2019-02-19T06:39:16.809Z,6.83
2019-02-19T06:40:16.815Z,6.72
2019-02-19T06:41:16.788Z,6.73
2019-02-19T06:42:16.778Z,6.76
2019-02-19T06:43:16.770Z,6.72
2019-02-19T06:44:16.757Z,6.65
2019-02-19T06:45:16.761Z,6.68
2019-02-19T06:46:16.746Z,6.62
2019-02-19T06:47:16.725Z,6.71
2019-02-19T06:48:16.717Z,6.66
2019-02-19T06:49:16.704Z,6.69
2019-02-19T06:50:16.694Z,6.65
2019-02-19T06:51:16.685Z,6.66
2019-02-19T06:52:16.683Z,6.69
2019-02-19T06:53:16.661Z,6.65
2019-02-19T06:54:16.652Z,6.68
2019-02-19T06:55:16.652Z,6.72
2019-02-19T06:56:16.631Z,6.71
2019-02-19T06:57:16.630Z,6.72
2019-02-19T06:58:16.619Z,6.73
2019-02-19T06:59:16.598Z,6.80
2019-02-19T07:00:16.587Z,6.68
2019-02-19T07:01:16.576Z,6.81
2019-02-19T07:02:16.571Z,6.87
2019-02-19T07:03:16.556Z,6.84
2019-02-19T07:04:16.556Z,6.89
2019-02-19T07:05:16.534Z,6.80
2019-02-19T07:06:16.527Z,6.94
2019-02-19T07:07:16.514Z,7.07
2019-02-19T07:08:16.503Z,6.98
2019-02-19T07:09:16.494Z,7.01
2019-02-19T07:10:16.501Z,6.94
2019-02-19T07:11:16.473Z,6.97
2019-02-19T07:12:16.460Z,6.94
2019-02-19T07:13:16.451Z,6.84
2019-02-19T07:14:16.439Z,6.84
2019-02-19T07:15:16.428Z,6.81
2019-02-19T07:16:16.429Z,6.84
2019-02-19T07:17:16.412Z,6.84
2019-02-19T07:18:16.396Z,6.79
2019-02-19T07:19:16.384Z,6.81
2019-02-19T07:20:16.397Z,6.81
2019-02-19T07:21:16.366Z,6.79
2019-02-19T07:22:16.365Z,6.83
2019-02-19T07:23:16.343Z,6.81
2019-02-19T07:24:16.334Z,6.79
2019-02-19T07:25:16.343Z,6.79
2019-02-19T07:26:16.354Z,6.80
2019-02-19T07:27:16.302Z,6.84
2019-02-19T07:28:16.320Z,6.77
2019-02-19T07:29:16.279Z,6.86
2019-02-19T07:30:16.268Z,6.72
2019-02-19T07:31:16.258Z,6.77
2019-02-19T07:32:16.250Z,6.77
2019-02-19T07:33:16.237Z,6.76
2019-02-19T07:34:16.238Z,6.68
2019-02-19T07:35:16.216Z,6.77
2019-02-19T07:36:16.216Z,6.68
2019-02-19T07:37:16.196Z,6.71
2019-02-19T07:38:16.185Z,6.80
2019-02-19T07:39:16.174Z,6.71
2019-02-19T07:40:17.496Z,6.72
2019-02-19T07:41:16.150Z,6.84
2019-02-19T07:42:16.142Z,6.79
2019-02-19T07:43:16.140Z,6.80
2019-02-19T07:44:16.118Z,6.81
2019-02-19T07:45:16.107Z,6.79
2019-02-19T07:46:16.106Z,6.81
2019-02-19T07:47:24.259Z,6.81
2019-02-19T07:48:17.073Z,6.81
2019-02-19T07:49:16.064Z,6.87
2019-02-19T07:50:16.053Z,6.79
2019-02-19T07:51:16.042Z,6.80
2019-02-19T07:52:16.045Z,6.83
2019-02-19T07:53:16.021Z,6.76
2019-02-19T07:54:16.015Z,6.84
2019-02-19T07:55:16.001Z,6.80
2019-02-19T07:56:15.990Z,6.79
2019-02-19T07:57:15.979Z,6.73
2019-02-19T07:58:15.981Z,6.84
2019-02-19T07:59:15.956Z,6.77
2019-02-19T08:00:15.947Z,6.68
2019-02-19T08:01:15.935Z,6.80
2019-02-19T08:02:15.924Z,6.76
2019-02-19T08:03:15.913Z,6.84
2019-02-19T08:04:15.914Z,6.80
2019-02-19T08:05:15.891Z,6.81
2019-02-19T08:06:15.885Z,6.80
2019-02-19T08:07:15.871Z,6.83
2019-02-19T08:08:15.860Z,6.83
2019-02-19T08:09:15.851Z,6.73
2019-02-19T08:10:15.849Z,6.79
2019-02-19T08:11:15.828Z,6.81
2019-02-19T08:12:15.818Z,6.91
2019-02-19T08:13:15.806Z,6.90
2019-02-19T08:14:15.795Z,6.95
2019-02-19T08:15:15.787Z,7.01
2019-02-19T08:16:15.784Z,6.94
2019-02-19T08:17:15.764Z,6.99
2019-02-19T08:18:15.754Z,7.07
2019-02-19T08:19:15.750Z,7.15
2019-02-19T08:20:16.441Z,7.16
2019-02-19T08:21:15.720Z,7.22
2019-02-19T08:22:15.727Z,7.08
2019-02-19T08:23:15.698Z,7.15
2019-02-19T08:24:15.687Z,7.15
2019-02-19T08:25:15.676Z,7.27
2019-02-19T08:26:15.666Z,7.22
2019-02-19T08:27:15.654Z,7.24
2019-02-19T08:28:15.659Z,7.27
2019-02-19T08:29:15.634Z,7.23
2019-02-19T08:30:15.621Z,7.38
2019-02-19T08:31:15.613Z,7.37
2019-02-19T08:32:15.600Z,7.44
2019-02-19T08:33:15.589Z,7.49
2019-02-19T08:34:15.590Z,7.47
2019-02-19T08:35:15.570Z,7.47
2019-02-19T08:36:15.558Z,7.47
2019-02-19T08:37:15.548Z,7.55
2019-02-19T08:38:15.538Z,7.56
2019-02-19T08:39:15.525Z,7.69
2019-02-19T08:40:15.537Z,7.69
2019-02-19T08:41:15.542Z,7.72
2019-02-19T08:42:15.493Z,7.79
2019-02-19T08:43:15.482Z,7.71
2019-02-19T08:44:15.472Z,7.71
2019-02-19T08:45:15.463Z,7.85
2019-02-19T08:46:15.460Z,7.94
2019-02-19T08:47:15.438Z,8.04
2019-02-19T08:48:15.428Z,8.10
2019-02-19T08:49:15.417Z,8.12
2019-02-19T08:50:15.405Z,8.22
2019-02-19T08:51:15.395Z,8.22
2019-02-19T08:52:15.396Z,8.22
2019-02-19T08:53:15.374Z,8.22
2019-02-19T08:54:15.364Z,8.30
2019-02-19T08:55:15.354Z,8.50
2019-02-19T08:56:15.341Z,8.57
2019-02-19T08:57:15.338Z,8.65
2019-02-19T08:58:15.342Z,8.72
2019-02-19T08:59:15.312Z,8.83
2019-02-19T09:00:15.301Z,8.76
2019-02-19T09:01:15.290Z,8.86
2019-02-19T09:02:15.278Z,8.96
2019-02-19T09:03:16.869Z,8.83
2019-02-19T09:04:15.265Z,8.72
2019-02-19T09:05:15.244Z,8.68
2019-02-19T09:06:15.256Z,8.78
2019-02-19T09:07:15.225Z,8.75
2019-02-19T09:08:15.217Z,8.97
2019-02-19T09:09:15.200Z,8.96
2019-02-19T09:10:15.211Z,8.79
2019-02-19T09:11:15.182Z,8.90
2019-02-19T09:12:15.169Z,8.91
2019-02-19T09:13:15.157Z,8.90
2019-02-19T09:14:15.147Z,8.87
2019-02-19T09:15:15.138Z,8.79
2019-02-19T09:16:15.142Z,8.94
2019-02-19T09:17:15.112Z,8.88
2019-02-19T09:18:15.101Z,9.02
2019-02-19T09:19:15.091Z,9.06
2019-02-19T09:20:15.079Z,9.09
2019-02-19T09:21:15.068Z,9.12
2019-02-19T09:22:15.074Z,9.18
2019-02-19T09:23:15.048Z,9.05
2019-02-19T09:24:15.037Z,8.87
2019-02-19T09:25:15.024Z,8.86
2019-02-19T09:26:15.013Z,8.93
2019-02-19T09:27:15.002Z,8.83
2019-02-19T09:28:15.009Z,8.83
2019-02-19T09:29:14.984Z,8.78
2019-02-19T09:30:14.971Z,8.79
2019-02-19T09:31:14.958Z,8.71
2019-02-19T09:32:14.947Z,8.81
2019-02-19T09:33:14.936Z,8.87
2019-02-19T09:34:14.939Z,8.86
2019-02-19T09:35:14.914Z,9.09
2019-02-19T09:36:14.903Z,9.18
2019-02-19T09:37:14.893Z,9.10
2019-02-19T09:38:14.882Z,9.27
2019-02-19T09:39:14.871Z,9.18
2019-02-19T09:40:14.879Z,9.20
2019-02-19T09:41:14.848Z,9.21
2019-02-19T09:42:14.837Z,9.31
2019-02-19T09:43:14.826Z,9.40
2019-02-19T09:44:14.816Z,9.34
2019-02-19T09:45:14.804Z,9.31
2019-02-19T09:46:14.809Z,9.28
2019-02-19T09:47:14.785Z,9.30
2019-02-19T09:48:14.776Z,9.39
2019-02-19T09:49:14.760Z,9.20
2019-02-19T09:50:14.748Z,9.23
2019-02-19T09:51:14.739Z,9.21
2019-02-19T09:52:14.737Z,9.20
2019-02-19T09:53:14.716Z,9.10
2019-02-19T09:54:14.706Z,9.13
2019-02-19T09:55:14.695Z,9.20
2019-02-19T09:56:14.682Z,9.23
2019-02-19T09:57:14.674Z,9.38
2019-02-19T09:58:14.673Z,9.39
2019-02-19T09:59:14.649Z,9.42
2019-02-19T10:00:14.705Z,9.28
2019-02-19T10:01:14.628Z,9.25
2019-02-19T10:02:14.616Z,9.15
2019-02-19T10:03:14.607Z,9.16
2019-02-19T10:04:14.606Z,9.18
2019-02-19T10:05:14.583Z,9.23
2019-02-19T10:06:14.573Z,9.27
2019-02-19T10:07:14.585Z,9.38
2019-02-19T10:08:14.555Z,9.27
2019-02-19T10:09:14.549Z,9.20
2019-02-19T10:10:14.540Z,9.23
2019-02-19T10:11:14.519Z,9.10
2019-02-19T10:12:14.511Z,9.04
2019-02-19T10:13:14.498Z,9.01
2019-02-19T10:14:14.489Z,9.06
2019-02-19T10:15:14.474Z,9.21
2019-02-19T10:16:14.475Z,9.28
2019-02-19T10:17:14.454Z,9.32
2019-02-19T10:18:14.441Z,9.52
2019-02-19T10:19:14.435Z,9.63
2019-02-19T10:20:14.419Z,9.70
2019-02-19T10:21:14.408Z,9.75
2019-02-19T10:22:14.408Z,9.86
2019-02-19T10:23:14.386Z,9.78
2019-02-19T10:24:14.388Z,9.75
2019-02-19T10:25:14.363Z,9.73
2019-02-19T10:26:14.359Z,9.82
2019-02-19T10:27:14.345Z,9.78
2019-02-19T10:28:14.341Z,9.61
2019-02-19T10:29:14.320Z,9.49
2019-02-19T10:30:14.308Z,9.40
2019-02-19T10:31:14.298Z,9.42
2019-02-19T10:32:14.288Z,9.35
2019-02-19T10:33:14.316Z,9.32
2019-02-19T10:34:14.283Z,9.32
2019-02-19T10:35:14.254Z,9.35
2019-02-19T10:36:14.243Z,9.40
2019-02-19T10:37:14.233Z,9.35
2019-02-19T10:38:14.240Z,9.39
2019-02-19T10:39:14.211Z,9.49
2019-02-19T10:40:14.215Z,9.57
2019-02-19T10:41:14.190Z,9.61
2019-02-19T10:42:14.184Z,9.64
2019-02-19T10:43:14.169Z,9.67
2019-02-19T10:44:14.159Z,9.58
2019-02-19T10:45:14.146Z,9.58
2019-02-19T10:46:14.145Z,9.49
2019-02-19T10:47:14.128Z,9.48
2019-02-19T10:48:18.937Z,9.39
2019-02-19T10:49:15.103Z,9.34
2019-02-19T10:50:14.093Z,9.39
2019-02-19T10:51:14.081Z,9.39
2019-02-19T10:52:14.081Z,9.43
2019-02-19T10:53:14.061Z,9.45
2019-02-19T10:54:14.049Z,9.43
2019-02-19T10:55:14.044Z,9.58
2019-02-19T10:56:14.031Z,9.56
2019-02-19T10:57:14.018Z,9.61
2019-02-19T10:58:22.220Z,9.57
2019-02-19T10:59:15.000Z,9.56
2019-02-19T11:00:13.986Z,9.58
2019-02-19T11:01:13.984Z,9.57
2019-02-19T11:02:13.964Z,9.63
2019-02-19T11:03:13.953Z,9.43
2019-02-19T11:04:13.952Z,9.57
2019-02-19T11:05:13.931Z,9.46
2019-02-19T11:06:13.921Z,9.49
2019-02-19T11:07:13.913Z,9.45
2019-02-19T11:08:13.906Z,9.60
2019-02-19T11:09:13.887Z,9.58
2019-02-19T11:10:13.888Z,9.57
2019-02-19T11:11:13.866Z,9.49
2019-02-19T11:12:13.858Z,9.35
2019-02-19T11:13:13.845Z,9.31
2019-02-19T11:14:13.833Z,9.34
2019-02-19T11:15:13.826Z,9.28
2019-02-19T11:16:13.829Z,9.30
2019-02-19T11:17:13.801Z,9.46
2019-02-19T11:18:13.790Z,9.56
2019-02-19T11:19:13.780Z,9.61
2019-02-19T11:20:13.767Z,9.53
2019-02-19T11:21:19.741Z,9.66
2019-02-19T11:22:14.755Z,9.71
2019-02-19T11:23:13.738Z,9.78
2019-02-19T11:24:13.728Z,9.70
2019-02-19T11:25:13.714Z,9.79
2019-02-19T11:26:13.702Z,9.67
2019-02-19T11:27:13.698Z,9.70
2019-02-19T11:28:13.691Z,9.73
2019-02-19T11:29:13.670Z,9.76
2019-02-19T11:30:13.659Z,9.82
2019-02-19T11:31:13.647Z,9.82
2019-02-19T11:32:13.637Z,9.82
2019-02-19T11:33:13.629Z,9.85
2019-02-19T11:34:13.626Z,9.85
2019-02-19T11:35:13.611Z,9.81
2019-02-19T11:36:13.594Z,9.82
2019-02-19T11:37:13.584Z,9.71
2019-02-19T11:38:13.573Z,9.75
2019-02-19T11:39:13.566Z,9.66
2019-02-19T11:40:13.605Z,9.58
2019-02-19T11:41:13.541Z,9.67
2019-02-19T11:42:13.530Z,9.70
2019-02-19T11:43:13.519Z,9.68
2019-02-19T11:44:13.508Z,9.75
2019-02-19T11:45:13.498Z,9.73
2019-02-19T11:46:13.501Z,9.70
2019-02-19T11:47:13.478Z,9.75
2019-02-19T11:48:13.468Z,9.76
2019-02-19T11:49:13.454Z,9.66
2019-02-19T11:50:13.469Z,9.76
2019-02-19T11:51:13.437Z,9.71
2019-02-19T11:52:13.432Z,9.81
2019-02-19T11:53:13.411Z,9.82
2019-02-19T11:54:13.400Z,9.83
2019-02-19T11:55:13.390Z,9.75
2019-02-19T11:56:13.413Z,9.73
2019-02-19T11:57:13.367Z,9.76
2019-02-19T11:58:13.366Z,9.70
2019-02-19T11:59:13.384Z,9.76
2019-02-19T12:00:13.336Z,9.68
2019-02-19T12:01:13.324Z,9.71
2019-02-19T12:02:13.321Z,9.76
2019-02-19T12:03:13.303Z,9.83
2019-02-19T12:04:13.301Z,9.82
2019-02-19T12:05:13.281Z,9.86
2019-02-19T12:06:13.276Z,9.81
2019-02-19T12:07:13.259Z,9.97
2019-02-19T12:08:13.249Z,9.96
2019-02-19T12:09:13.238Z,10.01
2019-02-19T12:10:13.241Z,10.03
2019-02-19T12:11:13.221Z,10.09
2019-02-19T12:12:13.209Z,10.09
2019-02-19T12:13:13.195Z,10.06
2019-02-19T12:14:13.183Z,10.07
2019-02-19T12:15:13.173Z,10.04
2019-02-19T12:16:13.174Z,10.14
2019-02-19T12:17:13.153Z,10.09
2019-02-19T12:18:13.142Z,10.10
2019-02-19T12:19:13.130Z,10.18
2019-02-19T12:20:13.120Z,10.22
2019-02-19T12:21:13.108Z,10.12
2019-02-19T12:22:13.108Z,10.04
2019-02-19T12:23:13.088Z,10.14
2019-02-19T12:24:13.078Z,10.10
2019-02-19T12:25:13.066Z,10.18
2019-02-19T12:26:13.058Z,10.10
2019-02-19T12:27:13.045Z,10.12
2019-02-19T12:28:13.053Z,10.09
2019-02-19T12:29:13.023Z,10.07
2019-02-19T12:30:13.024Z,10.09
2019-02-19T12:31:13.003Z,10.10
2019-02-19T12:32:12.991Z,10.12
2019-02-19T12:33:12.980Z,10.07
2019-02-19T12:34:12.989Z,10.06
2019-02-19T12:35:12.959Z,10.04
2019-02-19T12:36:12.953Z,10.00
2019-02-19T12:37:12.937Z,10.06
2019-02-19T12:38:12.927Z,10.06
2019-02-19T12:39:12.916Z,10.04
2019-02-19T12:40:12.918Z,10.07
2019-02-19T12:41:12.898Z,10.07
2019-02-19T12:42:12.920Z,10.15
2019-02-19T12:43:12.872Z,10.15
2019-02-19T12:44:12.862Z,10.07
2019-02-19T12:45:12.851Z,10.22
2019-02-19T12:46:12.853Z,10.14
2019-02-19T12:47:12.829Z,10.22
2019-02-19T12:48:12.822Z,10.21
2019-02-19T12:49:12.807Z,10.26
2019-02-19T12:50:12.796Z,10.25
2019-02-19T12:51:12.785Z,10.25
2019-02-19T12:52:12.786Z,10.22
2019-02-19T12:53:12.763Z,10.28
2019-02-19T12:54:12.752Z,10.24
2019-02-19T12:55:12.742Z,10.22
2019-02-19T12:56:12.730Z,10.21
2019-02-19T12:57:14.654Z,10.28
2019-02-19T12:58:12.726Z,10.25
2019-02-19T12:59:12.697Z,10.24
2019-02-19T13:00:12.688Z,10.37
2019-02-19T13:01:12.675Z,10.37
2019-02-19T13:02:12.664Z,10.53
2019-02-19T13:03:12.654Z,10.42
2019-02-19T13:04:12.657Z,10.43
2019-02-19T13:05:12.632Z,10.56
2019-02-19T13:06:12.640Z,10.52
2019-02-19T13:07:12.612Z,10.46
2019-02-19T13:08:12.600Z,10.37
2019-02-19T13:09:12.610Z,10.51
2019-02-19T13:10:12.587Z,10.40
2019-02-19T13:11:12.567Z,10.40
2019-02-19T13:12:12.556Z,10.42
2019-02-19T13:13:12.544Z,10.36
2019-02-19T13:14:12.534Z,10.42
2019-02-19T13:15:12.533Z,10.28
2019-02-19T13:16:12.527Z,10.37